createdAt,value
2022-12-08T00:02:45.618Z,99136.53
2022-12-08T00:06:07.564Z,99138.31
2022-12-08T00:09:23.035Z,99142.47
2022-12-08T00:12:25.185Z,99145.81
2022-12-08T00:15:27.384Z,99142.28
2022-12-08T00:18:29.518Z,99145.28
2022-12-08T00:21:31.758Z,99148.16
2022-12-08T00:24:36.172Z,99147.41
2022-12-08T00:27:38.329Z,99150.38
2022-12-08T00:30:41.677Z,99148.31
2022-12-08T00:33:43.842Z,99151.53
2022-12-08T00:36:46.416Z,99156.41
2022-12-08T00:39:48.586Z,99151.41
2022-12-08T00:42:50.738Z,99160.50
2022-12-08T00:45:52.897Z,99156.16
2022-12-08T00:48:55.054Z,99156.28
2022-12-08T00:51:57.250Z,99158.09
2022-12-08T00:54:59.406Z,99157.84
2022-12-08T00:58:01.739Z,99155.22
2022-12-08T01:01:12.943Z,99160.38
2022-12-08T01:04:16.906Z,99158.47
2022-12-08T01:07:19.076Z,99154.09
2022-12-08T01:10:21.286Z,99152.09
2022-12-08T01:13:23.425Z,99148.44
2022-12-08T01:16:28.576Z,99156.56
2022-12-08T01:19:31.018Z,99148.94
2022-12-08T01:22:35.168Z,99147.37
2022-12-08T01:25:37.361Z,99148.88
2022-12-08T01:28:39.885Z,99153.84
2022-12-08T01:31:42.252Z,99153.13
2022-12-08T01:34:44.447Z,99158.16
2022-12-08T01:37:46.687Z,99146.69
2022-12-08T01:40:49.298Z,99152.59
2022-12-08T01:43:56.333Z,99150.19
2022-12-08T01:46:58.566Z,99148.31
2022-12-08T01:50:00.944Z,99138.91
2022-12-08T01:53:10.742Z,99139.69
2022-12-08T01:56:16.729Z,99131.78
2022-12-08T01:59:19.445Z,99131.06
2022-12-08T02:02:21.671Z,99131.75
2022-12-08T02:05:26.976Z,99128.75
2022-12-08T02:08:29.527Z,99130.31
2022-12-08T02:11:31.855Z,99123.75
2022-12-08T02:14:34.614Z,99124.75
2022-12-08T02:18:07.602Z,99130.50
2022-12-08T02:21:21.865Z,99125.16
2022-12-08T02:24:41.345Z,99128.88
2022-12-08T02:28:01.543Z,99120.88
2022-12-08T02:31:18.987Z,99122.63
2022-12-08T02:34:30.591Z,99127.62
2022-12-08T02:37:37.390Z,99125.56
2022-12-08T02:41:03.788Z,99126.69
2022-12-08T02:44:16.255Z,99120.34
2022-12-08T02:47:19.684Z,99115.59
2022-12-08T02:50:21.848Z,99111.75
2022-12-08T02:53:23.986Z,99116.94
2022-12-08T02:56:52.932Z,99107.63
2022-12-08T03:00:10.381Z,99096.31
2022-12-08T03:03:24.419Z,99096.63
2022-12-08T03:06:37.153Z,99090.19
2022-12-08T03:09:46.833Z,99087.81
2022-12-08T03:12:54.490Z,99088.31
2022-12-08T03:15:57.013Z,99087.81
2022-12-08T03:19:09.654Z,99091.81
2022-12-08T03:22:12.504Z,99084.16
2022-12-08T03:25:16.509Z,99083.25
2022-12-08T03:28:18.710Z,99079.44
2022-12-08T03:31:21.939Z,99079.13
2022-12-08T03:34:26.607Z,99069.28
2022-12-08T03:37:29.001Z,99072.97
2022-12-08T03:40:31.403Z,99080.91
2022-12-08T03:43:33.592Z,99077.94
2022-12-08T03:46:35.794Z,99079.28
2022-12-08T03:49:38.026Z,99083.94
2022-12-08T03:52:40.212Z,99088.22
2022-12-08T03:55:42.503Z,99082.97
2022-12-08T03:58:44.814Z,99083.12
2022-12-08T04:01:47.054Z,99088.34
2022-12-08T04:04:49.249Z,99087.66
2022-12-08T04:07:51.488Z,99087.78
2022-12-08T04:10:53.794Z,99093.56
2022-12-08T04:13:56.038Z,99089.72
2022-12-08T04:16:58.204Z,99087.53
2022-12-08T04:20:00.344Z,99084.63
2022-12-08T04:23:02.493Z,99081.31
2022-12-08T04:26:04.924Z,99084.78
2022-12-08T04:29:07.245Z,99072.56
2022-12-08T04:32:09.457Z,99066.91
2022-12-08T04:35:11.582Z,99065.94
2022-12-08T04:38:14.487Z,99063.75
2022-12-08T04:41:16.656Z,99062.91
2022-12-08T04:44:18.876Z,99065.28
2022-12-08T04:47:22.250Z,99060.19
2022-12-08T04:50:24.396Z,99063.63
2022-12-08T04:53:27.188Z,99054.94
2022-12-08T04:56:29.403Z,99049.59
2022-12-08T04:59:31.707Z,99056.87
2022-12-08T05:02:33.966Z,99060.88
2022-12-08T05:05:36.312Z,99054.56
2022-12-08T05:08:38.499Z,99050.94
2022-12-08T05:11:48.410Z,99046.50
2022-12-08T05:14:51.142Z,99051.59
2022-12-08T05:17:53.421Z,99053.53
2022-12-08T05:20:55.585Z,99056.59
2022-12-08T05:23:57.733Z,99053.97
2022-12-08T05:26:59.854Z,99061.75
2022-12-08T05:30:02.253Z,99056.37
2022-12-08T05:33:04.770Z,99065.06
2022-12-08T05:36:07.550Z,99056.81
2022-12-08T05:39:13.975Z,99060.69
2022-12-08T05:42:20.491Z,99059.72
2022-12-08T05:45:25.481Z,99065.19
2022-12-08T05:48:27.889Z,99064.09
2022-12-08T05:51:30.348Z,99064.06
2022-12-08T05:54:32.558Z,99059.72
2022-12-08T05:57:34.695Z,99052.81
2022-12-08T06:00:36.926Z,99052.56
2022-12-08T06:03:39.149Z,99050.78
2022-12-08T06:06:41.334Z,99050.13
2022-12-08T06:09:44.203Z,99045.53
2022-12-08T06:12:46.390Z,99050.44
2022-12-08T06:15:48.548Z,99054.88
2022-12-08T06:18:50.753Z,99070.75
2022-12-08T06:21:52.935Z,99066.50
2022-12-08T06:24:55.301Z,99066.66
2022-12-08T06:27:57.887Z,99063.00
2022-12-08T06:31:00.592Z,99066.97
2022-12-08T06:34:02.879Z,99064.69
2022-12-08T06:37:05.026Z,99080.66
2022-12-08T06:40:07.929Z,99078.59
2022-12-08T06:43:10.225Z,99080.53
2022-12-08T06:46:15.935Z,99077.38
2022-12-08T06:49:18.188Z,99083.44
2022-12-08T06:52:20.325Z,99077.09
2022-12-08T06:55:50.775Z,99086.56
2022-12-08T06:58:49.060Z,99084.25
2022-12-08T07:01:54.520Z,99087.25
2022-12-08T07:04:56.733Z,99084.19
2022-12-08T07:07:58.956Z,99082.75
2022-12-08T07:11:07.679Z,99095.78
2022-12-08T07:14:10.892Z,99082.12
2022-12-08T07:17:13.726Z,99084.81
2022-12-08T07:20:16.614Z,99085.50
2022-12-08T07:23:18.778Z,99088.22
2022-12-08T07:26:20.990Z,99081.09
2022-12-08T07:29:26.208Z,99079.91
2022-12-08T07:32:28.684Z,99079.41
2022-12-08T07:35:30.843Z,99078.59
2022-12-08T07:38:33.150Z,99080.84
2022-12-08T07:41:35.486Z,99075.69
2022-12-08T07:44:37.944Z,99083.53
2022-12-08T07:47:40.113Z,99076.41
2022-12-08T07:50:42.576Z,99079.44
2022-12-08T07:53:53.172Z,99079.84
2022-12-08T07:56:57.960Z,99075.12
2022-12-08T08:00:00.102Z,99075.12
2022-12-08T08:03:02.869Z,99077.66
2022-12-08T08:06:05.764Z,99081.72
2022-12-08T08:09:08.870Z,99071.16
2022-12-08T08:12:30.092Z,99062.84
2022-12-08T08:15:33.319Z,99063.66
2022-12-08T08:18:36.149Z,99058.34
2022-12-08T08:21:46.360Z,99055.81
2022-12-08T08:24:48.737Z,99056.22
2022-12-08T08:27:51.186Z,99057.34
2022-12-08T08:30:53.749Z,99058.53
2022-12-08T08:33:56.934Z,99064.09
2022-12-08T08:36:59.198Z,99070.91
2022-12-08T08:40:01.681Z,99075.31
2022-12-08T08:43:05.293Z,99067.62
2022-12-08T08:46:09.049Z,99064.78
2022-12-08T08:49:11.316Z,99051.56
2022-12-08T08:52:13.460Z,99062.09
2022-12-08T08:55:15.834Z,99061.94
2022-12-08T08:58:18.246Z,99064.88
2022-12-08T09:01:23.232Z,99054.06
2022-12-08T09:04:25.755Z,99050.47
2022-12-08T09:07:27.984Z,99056.84
2022-12-08T09:10:30.174Z,99052.25
2022-12-08T09:13:32.346Z,99050.25
2022-12-08T09:16:40.422Z,99046.16
2022-12-08T09:19:44.294Z,99041.53
2022-12-08T09:22:46.502Z,99027.59
2022-12-08T09:25:48.659Z,99032.22
2022-12-08T09:28:52.035Z,99035.66
2022-12-08T09:31:55.167Z,99039.63
2022-12-08T09:34:57.516Z,99042.88
2022-12-08T09:37:59.682Z,99034.34
2022-12-08T09:41:04.007Z,99014.31
2022-12-08T09:44:38.658Z,99015.28
2022-12-08T09:47:47.764Z,99024.00
2022-12-08T09:50:53.718Z,99025.66
2022-12-08T09:53:59.377Z,99018.13
2022-12-08T09:57:07.676Z,99021.41
2022-12-08T10:00:14.459Z,99020.59
2022-12-08T10:03:17.192Z,99015.50
2022-12-08T10:06:29.314Z,99002.06
2022-12-08T10:09:37.030Z,98994.97
2022-12-08T10:12:45.284Z,98996.97
2022-12-08T10:15:59.430Z,98989.25
2022-12-08T10:19:28.797Z,98982.50
2022-12-08T10:22:37.699Z,98984.31
2022-12-08T10:25:46.629Z,98992.69
2022-12-08T10:28:49.326Z,98989.56
2022-12-08T10:31:51.559Z,98991.03
2022-12-08T10:35:14.792Z,98998.78
2022-12-08T10:38:18.579Z,98978.56
2022-12-08T10:41:20.924Z,98988.56
2022-12-08T10:44:23.070Z,98981.03
2022-12-08T10:47:27.167Z,98972.16
2022-12-08T10:50:43.944Z,98970.31
2022-12-08T10:53:46.773Z,98959.78
2022-12-08T10:56:55.037Z,98966.69
2022-12-08T10:59:57.521Z,98963.91
2022-12-08T11:03:04.776Z,98955.38
2022-12-08T11:06:20.072Z,98951.53
2022-12-08T11:09:24.874Z,98950.00
2022-12-08T11:12:28.577Z,98948.06
2022-12-08T11:15:37.815Z,98932.97
2022-12-08T11:18:47.067Z,98939.03
2022-12-08T11:21:49.275Z,98929.34
2022-12-08T11:25:03.647Z,98924.88
2022-12-08T11:28:10.088Z,98922.62
2022-12-08T11:31:35.638Z,98927.53
2022-12-08T11:34:44.624Z,98917.09
2022-12-08T11:37:46.864Z,98898.69
2022-12-08T11:41:04.740Z,98898.28
2022-12-08T11:44:39.041Z,98886.09
2022-12-08T11:47:55.444Z,98889.59
2022-12-08T11:51:05.215Z,98875.34
2022-12-08T11:54:13.473Z,98876.69
2022-12-08T11:57:20.871Z,98866.13
2022-12-08T12:00:23.198Z,98858.75
2022-12-08T12:03:31.495Z,98852.22
2022-12-08T12:06:58.062Z,98838.00
2022-12-08T12:10:28.330Z,98823.38
2022-12-08T12:13:53.332Z,98816.00
2022-12-08T12:17:06.288Z,98813.25
2022-12-08T12:20:29.955Z,98813.25
2022-12-08T12:23:36.605Z,98817.53
2022-12-08T12:26:53.436Z,98812.09
2022-12-08T12:30:00.702Z,98810.13
2022-12-08T12:33:08.661Z,98816.38
2022-12-08T12:36:11.207Z,98830.16
2022-12-08T12:39:14.377Z,98840.50
2022-12-08T12:42:45.355Z,98839.16
2022-12-08T12:45:47.590Z,98836.69
2022-12-08T12:48:53.181Z,98847.03
2022-12-08T12:51:55.721Z,98845.53
2022-12-08T12:54:57.784Z,98848.16
2022-12-08T12:58:13.312Z,98846.53
2022-12-08T13:01:21.569Z,98840.63
2022-12-08T13:04:33.661Z,98839.28
2022-12-08T13:07:59.358Z,98839.00
2022-12-08T13:11:07.083Z,98842.91
2022-12-08T13:14:32.259Z,98843.91
2022-12-08T13:17:38.108Z,98845.09
2022-12-08T13:20:48.451Z,98834.41
2022-12-08T13:24:12.777Z,98822.25
2022-12-08T13:27:33.166Z,98831.94
2022-12-08T13:30:43.622Z,98835.75
2022-12-08T13:33:45.921Z,98827.53
2022-12-08T13:36:56.976Z,98834.75
2022-12-08T13:40:04.035Z,98827.03
2022-12-08T13:43:17.285Z,98825.41
2022-12-08T13:57:11.477Z,98808.00
2022-12-08T14:00:19.636Z,98821.47
2022-12-08T14:03:21.882Z,98814.91
2022-12-08T14:06:38.851Z,98815.09
2022-12-08T14:09:41.711Z,98822.25
2022-12-08T14:12:46.565Z,98820.50
2022-12-08T14:15:48.800Z,98811.59
2022-12-08T14:18:51.247Z,98810.78
2022-12-08T14:22:08.780Z,98801.78
2022-12-08T14:25:15.283Z,98811.13
2022-12-08T14:28:17.463Z,98798.88
2022-12-08T14:31:19.618Z,98808.31
2022-12-08T14:34:21.863Z,98803.25
2022-12-08T14:37:25.863Z,98810.94
2022-12-08T14:40:33.689Z,98813.34
2022-12-08T14:43:36.227Z,98805.37
2022-12-08T14:46:38.525Z,98809.97
2022-12-08T14:49:40.809Z,98801.78
2022-12-08T14:52:44.626Z,98803.25
2022-12-08T14:55:48.315Z,98796.03
2022-12-08T14:59:03.126Z,98800.94
2022-12-08T15:02:24.257Z,98802.75
2022-12-08T15:05:30.623Z,98801.12
2022-12-08T15:08:33.859Z,98798.34
2022-12-08T15:11:36.070Z,98795.59
2022-12-08T15:14:42.147Z,98783.75
2022-12-08T15:17:51.765Z,98791.47
2022-12-08T15:20:55.738Z,98784.41
2022-12-08T15:23:57.943Z,98788.03
2022-12-08T15:27:00.172Z,98789.66
2022-12-08T15:30:02.443Z,98792.62
2022-12-08T15:33:04.718Z,98785.94
2022-12-08T15:36:07.092Z,98789.37
2022-12-08T15:39:31.590Z,98778.34
2022-12-08T15:42:33.767Z,98771.00
2022-12-08T15:45:35.999Z,98769.88
2022-12-08T15:48:38.329Z,98765.78
2022-12-08T15:51:40.470Z,98764.78
2022-12-08T15:54:42.744Z,98760.84
2022-12-08T16:01:08.715Z,98778.72
2022-12-08T16:04:59.667Z,98760.88
2022-12-08T16:07:38.248Z,98764.63
2022-12-08T16:11:24.179Z,98766.25
2022-12-08T16:14:47.101Z,98750.87
2022-12-08T16:17:26.899Z,98755.78
2022-12-08T16:21:05.441Z,98763.81
2022-12-08T16:23:51.408Z,98765.78
2022-12-08T16:30:17.746Z,98758.09
2022-12-08T16:33:21.112Z,98765.78
2022-12-08T16:36:23.468Z,98759.06
2022-12-08T16:39:25.800Z,98768.06
2022-12-08T16:42:39.726Z,98776.91
2022-12-08T16:45:45.037Z,98785.12
2022-12-08T16:48:47.430Z,98798.22
2022-12-08T16:51:49.629Z,98796.41
2022-12-08T16:54:51.974Z,98795.09
2022-12-08T16:57:54.235Z,98793.12
2022-12-08T17:00:56.495Z,98791.81
2022-12-08T17:07:21.242Z,98771.31
2022-12-08T17:10:26.362Z,98758.72
2022-12-08T17:13:28.551Z,98763.91
2022-12-08T17:16:30.940Z,98765.53
2022-12-08T17:19:33.876Z,98770.12
2022-12-08T17:22:36.147Z,98772.25
2022-12-08T17:25:38.418Z,98779.75
2022-12-08T17:29:10.781Z,98781.91
2022-12-08T17:32:03.605Z,98767.50
2022-12-08T17:35:06.829Z,98759.37
2022-12-08T17:38:09.402Z,98753.59
2022-12-08T17:41:12.948Z,98753.91
2022-12-08T17:44:19.911Z,98765.87
2022-12-08T17:47:22.337Z,98765.09
2022-12-08T17:50:24.495Z,98753.47
2022-12-08T17:53:26.666Z,98763.22
2022-12-08T17:56:28.835Z,98748.03
2022-12-08T17:59:32.453Z,98767.34
2022-12-08T18:02:37.837Z,98780.31
2022-12-08T18:05:40.220Z,98773.94
2022-12-08T18:08:42.388Z,98768.69
2022-12-08T18:11:46.180Z,98758.06
2022-12-08T18:14:48.854Z,98753.16
2022-12-08T18:17:51.337Z,98758.91
2022-12-08T18:20:53.654Z,98756.59
2022-12-08T18:23:55.958Z,98757.94
2022-12-08T18:26:58.347Z,98767.72
2022-12-08T18:30:02.067Z,98765.09
2022-12-08T18:33:05.387Z,98759.19
2022-12-08T18:36:10.055Z,98747.91
2022-12-08T18:39:32.689Z,98744.31
2022-12-08T18:42:35.410Z,98744.16
2022-12-08T18:45:39.732Z,98735.50
2022-12-08T18:48:47.363Z,98731.88
2022-12-08T18:51:49.751Z,98729.75
2022-12-08T18:55:06.328Z,98730.56
2022-12-08T18:58:10.985Z,98732.19
2022-12-08T19:01:14.386Z,98726.28
2022-12-08T19:04:37.229Z,98744.47
2022-12-08T19:07:39.418Z,98746.47
2022-12-08T19:10:42.045Z,98744.66
2022-12-08T19:13:44.255Z,98737.88
2022-12-08T19:16:46.629Z,98744.31
2022-12-08T19:19:48.975Z,98753.31
2022-12-08T19:22:51.199Z,98758.37
2022-12-08T19:25:54.243Z,98753.50
2022-12-08T19:28:57.592Z,98757.59
2022-12-08T19:32:00.450Z,98762.31
2022-12-08T19:35:07.206Z,98756.91
2022-12-08T19:38:09.437Z,98755.94
2022-12-08T19:41:30.846Z,98756.59
2022-12-08T19:44:51.918Z,98750.53
2022-12-08T19:47:54.340Z,98754.78
2022-12-08T19:50:57.020Z,98748.38
2022-12-08T19:53:59.478Z,98742.00
2022-12-08T19:57:02.081Z,98748.09
2022-12-08T20:00:05.965Z,98749.38
2022-12-08T20:03:09.081Z,98749.38
2022-12-08T20:06:14.876Z,98751.34
2022-12-08T20:09:17.256Z,98744.50
2022-12-08T20:12:19.689Z,98749.22
2022-12-08T20:15:22.161Z,98740.72
2022-12-08T20:18:25.864Z,98744.97
2022-12-08T20:21:28.402Z,98738.91
2022-12-08T20:24:32.426Z,98732.19
2022-12-08T20:27:35.575Z,98726.97
2022-12-08T20:30:39.422Z,98724.03
2022-12-08T20:33:42.392Z,98719.09
2022-12-08T20:36:46.073Z,98709.59
2022-12-08T20:39:48.789Z,98720.56
2022-12-08T20:42:51.047Z,98710.94
2022-12-08T20:45:54.793Z,98714.69
2022-12-08T20:49:01.205Z,98712.22
2022-12-08T20:52:03.909Z,98714.00
2022-12-08T20:55:07.531Z,98723.50
2022-12-08T20:58:10.028Z,98724.81
2022-12-08T21:01:14.358Z,98730.38
2022-12-08T21:04:16.841Z,98734.50
2022-12-08T21:07:19.214Z,98736.47
2022-12-08T21:10:21.523Z,98738.25
2022-12-08T21:13:24.207Z,98738.09
2022-12-08T21:16:26.667Z,98741.53
2022-12-08T21:19:29.527Z,98741.84
2022-12-08T21:22:31.832Z,98738.59
2022-12-08T21:25:34.146Z,98740.56
2022-12-08T21:28:36.460Z,98748.09
2022-12-08T21:31:39.217Z,98746.94
2022-12-08T21:34:43.941Z,98748.25
2022-12-08T21:37:46.186Z,98755.12
2022-12-08T21:40:48.542Z,98747.91
2022-12-08T21:43:50.985Z,98753.66
2022-12-08T21:46:53.420Z,98750.03
2022-12-08T21:49:55.736Z,98736.78
2022-12-08T21:52:58.139Z,98726.13
2022-12-08T21:56:00.532Z,98718.94
2022-12-08T21:59:03.147Z,98711.56
2022-12-08T22:02:05.573Z,98707.94
2022-12-08T22:05:08.534Z,98711.06
2022-12-08T22:08:10.776Z,98706.16
2022-12-08T22:11:13.212Z,98694.53
2022-12-08T22:14:15.614Z,98698.59
2022-12-08T22:17:18.720Z,98696.66
2022-12-08T22:20:21.029Z,98706.81
2022-12-08T22:23:23.647Z,98707.13
2022-12-08T22:26:26.008Z,98702.72
2022-12-08T22:29:28.541Z,98706.97
2022-12-08T22:32:30.977Z,98716.12
2022-12-08T22:35:33.256Z,98722.69
2022-12-08T22:38:35.408Z,98724.66
2022-12-08T22:41:37.787Z,98729.41
2022-12-08T22:44:39.996Z,98728.25
2022-12-08T22:47:42.306Z,98725.63
2022-12-08T22:50:44.502Z,98734.47
2022-12-08T22:53:47.342Z,98729.75
2022-12-08T22:56:49.491Z,98731.72
2022-12-08T22:59:51.749Z,98727.59
2022-12-08T23:02:54.265Z,98729.41
2022-12-08T23:05:57.382Z,98730.72
2022-12-08T23:08:59.686Z,98731.84
2022-12-08T23:12:02.165Z,98720.87
2022-12-08T23:15:04.802Z,98726.16
2022-12-08T23:18:07.593Z,98725.47
2022-12-08T23:21:12.615Z,98730.22
2022-12-08T23:24:14.757Z,98726.47
2022-12-08T23:27:16.913Z,98723.31
2022-12-08T23:30:19.188Z,98719.72
2022-12-08T23:33:21.579Z,98720.56
2022-12-08T23:36:26.312Z,98724.34
2022-12-08T23:39:29.381Z,98722.34
2022-12-08T23:42:31.579Z,98716.12
2022-12-08T23:45:33.795Z,98702.69
2022-12-08T23:48:36.271Z,98703.19
2022-12-08T23:51:38.642Z,98716.28
2022-12-08T23:54:41.118Z,98712.69
2022-12-08T23:57:43.354Z,98707.75
